createdAt,value
2019-04-14T00:01:43.392Z,24.03
2019-04-14T00:04:16.158Z,28.53
2019-04-14T00:06:46.318Z,26.03
2019-04-14T00:09:18.320Z,27.33
2019-04-14T00:11:48.128Z,26.40
2019-04-14T00:14:18.554Z,26.27
2019-04-14T00:16:48.984Z,30.63
2019-04-14T00:19:19.514Z,28.67
2019-04-14T00:21:50.045Z,26.17
2019-04-14T00:24:20.632Z,26.23
2019-04-14T00:26:51.020Z,25.60
2019-04-14T00:29:21.646Z,26.70
2019-04-14T00:31:53.723Z,26.30
2019-04-14T00:34:40.363Z,25.93
2019-04-14T00:37:31.565Z,24.00
2019-04-14T00:40:28.475Z,27.03
2019-04-14T00:43:15.798Z,24.63
2019-04-14T00:45:53.147Z,26.47
2019-04-14T00:48:23.091Z,28.93
2019-04-14T00:50:53.948Z,30.13
2019-04-14T00:53:23.403Z,28.00
2019-04-14T00:55:53.300Z,29.37
2019-04-14T00:58:23.609Z,27.77
2019-04-14T01:00:53.801Z,26.63
2019-04-14T01:03:24.281Z,25.87
2019-04-14T01:05:54.773Z,23.10
2019-04-14T01:08:24.932Z,24.67
2019-04-14T01:10:54.300Z,24.93
2019-04-14T01:13:24.623Z,26.00
2019-04-14T01:16:01.766Z,24.87
2019-04-14T01:18:25.533Z,28.87
2019-04-14T01:20:55.685Z,23.73
2019-04-14T01:23:26.111Z,24.47
2019-04-14T01:25:56.450Z,26.43
2019-04-14T01:28:26.587Z,25.03
2019-04-14T01:30:56.595Z,23.37
2019-04-14T01:33:27.180Z,26.90
2019-04-14T01:35:57.422Z,25.60
2019-04-14T01:38:27.610Z,27.97
2019-04-14T01:40:57.736Z,25.40
2019-04-14T01:43:27.807Z,25.27
2019-04-14T01:46:05.174Z,26.63
2019-04-14T01:48:28.205Z,26.20
2019-04-14T01:51:15.619Z,27.93
2019-04-14T01:54:03.991Z,27.40
2019-04-14T01:57:11.031Z,28.27
2019-04-14T01:59:41.274Z,26.43
2019-04-14T02:02:12.686Z,25.93
2019-04-14T02:04:42.159Z,26.80
2019-04-14T02:07:12.337Z,31.20
2019-04-14T02:09:42.506Z,27.50
2019-04-14T02:12:12.782Z,25.40
2019-04-14T02:14:43.047Z,30.97
2019-04-14T02:17:13.249Z,27.90
2019-04-14T02:19:43.879Z,24.80
2019-04-14T02:22:13.820Z,31.90
2019-04-14T02:24:43.909Z,27.30
2019-04-14T02:27:14.255Z,28.30
2019-04-14T02:29:43.581Z,24.93
2019-04-14T02:32:43.435Z,25.13
2019-04-14T02:35:10.898Z,27.13
2019-04-14T02:50:59.928Z,26.93
2019-04-14T02:56:08.222Z,26.50
2019-04-14T02:58:42.075Z,26.27
2019-04-14T03:03:33.549Z,24.83
2019-04-14T03:06:05.348Z,27.10
2019-04-14T03:08:41.357Z,26.40
2019-04-14T03:11:09.355Z,26.00
2019-04-14T03:13:35.955Z,26.80
2019-04-14T03:18:57.918Z,27.83
2019-04-14T03:21:55.116Z,26.17
2019-04-14T03:24:29.264Z,24.47
2019-04-14T03:27:22.713Z,27.57
2019-04-14T03:30:10.579Z,28.37
2019-04-14T03:35:04.023Z,29.47
2019-04-14T03:40:12.271Z,26.87
2019-04-14T03:42:40.937Z,25.37
2019-04-14T03:45:04.415Z,28.13
2019-04-14T03:47:31.078Z,28.53
2019-04-14T03:50:08.407Z,26.80
2019-04-14T03:52:51.930Z,27.20
2019-04-14T03:55:01.082Z,27.53
2019-04-14T03:57:15.651Z,27.23
2019-04-14T03:59:45.656Z,29.43
2019-04-14T04:02:46.697Z,28.83
2019-04-14T04:05:17.346Z,26.57
2019-04-14T04:08:20.023Z,29.77
2019-04-14T04:10:51.014Z,27.43
2019-04-14T04:13:21.563Z,26.93
2019-04-14T04:15:52.010Z,30.10
2019-04-14T04:18:24.241Z,27.43
2019-04-14T04:21:00.959Z,26.87
2019-04-14T04:23:53.218Z,28.47
2019-04-14T04:26:31.997Z,27.07
2019-04-14T04:29:04.997Z,30.97
2019-04-14T04:31:46.019Z,31.27
2019-04-14T04:34:53.425Z,26.77
2019-04-14T04:37:45.461Z,28.03
2019-04-14T04:40:22.213Z,30.37
2019-04-14T04:42:52.661Z,31.33
2019-04-14T04:45:23.429Z,31.30
2019-04-14T04:47:53.493Z,25.27
2019-04-14T04:50:23.892Z,32.30
2019-04-14T04:52:54.005Z,26.07
2019-04-14T04:55:24.195Z,27.87
2019-04-14T04:57:54.527Z,29.90
2019-04-14T05:00:24.445Z,27.33
2019-04-14T05:02:54.946Z,27.83
2019-04-14T05:06:00.347Z,29.87
2019-04-14T05:08:30.453Z,28.83
2019-04-14T05:11:07.561Z,29.13
2019-04-14T05:13:38.902Z,28.67
2019-04-14T05:16:09.000Z,27.73
2019-04-14T05:18:39.649Z,30.17
2019-04-14T05:21:10.382Z,29.97
2019-04-14T05:23:40.910Z,37.50
2019-04-14T05:26:11.301Z,28.10
2019-04-14T05:28:41.670Z,28.40
2019-04-14T05:31:12.162Z,30.80
2019-04-14T05:33:42.561Z,31.17
2019-04-14T05:36:12.840Z,30.67
2019-04-14T05:38:42.850Z,31.00
2019-04-14T05:41:13.585Z,31.43
2019-04-14T05:43:48.773Z,30.30
2019-04-14T05:46:14.324Z,28.97
2019-04-14T05:48:44.647Z,29.13
2019-04-14T05:51:15.334Z,30.03
2019-04-14T05:53:45.833Z,30.33
2019-04-14T05:56:16.368Z,28.30
2019-04-14T05:58:47.077Z,29.97
2019-04-14T06:01:18.075Z,31.80
2019-04-14T06:03:47.660Z,30.20
2019-04-14T06:06:17.203Z,29.90
2019-04-14T06:08:46.691Z,30.67
2019-04-14T06:11:16.262Z,30.80
2019-04-14T06:13:45.764Z,31.03
2019-04-14T06:16:15.271Z,30.13
2019-04-14T06:18:44.739Z,32.10
2019-04-14T06:21:14.305Z,31.57
2019-04-14T06:23:43.799Z,30.47
2019-04-14T06:26:13.572Z,28.63
2019-04-14T06:28:43.142Z,29.63
2019-04-14T06:31:25.044Z,27.47
2019-04-14T06:34:04.419Z,30.47
2019-04-14T06:36:52.894Z,27.90
2019-04-14T06:39:25.326Z,30.47
2019-04-14T06:41:54.878Z,32.57
2019-04-14T06:44:24.360Z,34.97
2019-04-14T06:46:53.867Z,30.13
2019-04-14T06:49:23.357Z,30.53
2019-04-14T06:51:52.844Z,30.53
2019-04-14T06:54:22.419Z,28.03
2019-04-14T06:56:51.890Z,30.77
2019-04-14T06:59:21.378Z,28.60
2019-04-14T07:01:50.871Z,29.73
2019-04-14T07:04:20.470Z,29.80
2019-04-14T07:06:51.438Z,28.03
2019-04-14T07:09:21.028Z,30.00
2019-04-14T07:11:50.521Z,31.10
2019-04-14T07:14:20.036Z,31.67
2019-04-14T07:16:51.386Z,26.80
2019-04-14T07:19:20.686Z,30.63
2019-04-14T07:21:50.203Z,27.30
2019-04-14T07:24:19.638Z,36.43
2019-04-14T07:26:49.159Z,25.73
2019-04-14T07:29:18.646Z,27.67
2019-04-14T07:31:56.364Z,32.00
2019-04-14T07:34:46.951Z,27.07
2019-04-14T07:37:42.851Z,30.23
2019-04-14T07:40:31.436Z,27.27
2019-04-14T07:43:22.854Z,30.93
2019-04-14T07:45:57.426Z,34.33
2019-04-14T07:48:37.927Z,28.63
2019-04-14T07:51:38.091Z,27.67
2019-04-14T07:54:24.635Z,27.00
2019-04-14T07:57:18.890Z,31.13
2019-04-14T07:59:55.082Z,29.17
2019-04-14T08:02:36.447Z,29.37
2019-04-14T08:05:12.416Z,27.27
2019-04-14T08:07:42.232Z,29.90
2019-04-14T08:10:12.315Z,27.53
2019-04-14T08:12:41.821Z,28.27
2019-04-14T08:15:11.465Z,27.83
2019-04-14T08:17:43.510Z,29.77
2019-04-14T08:20:12.235Z,26.77
2019-04-14T08:22:41.722Z,31.87
2019-04-14T08:25:11.280Z,27.37
2019-04-14T08:27:40.854Z,31.13
2019-04-14T08:30:10.416Z,29.10
2019-04-14T08:32:40.010Z,28.20
2019-04-14T08:35:09.610Z,30.13
2019-04-14T08:37:39.080Z,33.80
2019-04-14T08:40:08.573Z,31.67
2019-04-14T08:42:55.858Z,31.03
2019-04-14T08:46:02.539Z,27.40
2019-04-14T08:48:53.872Z,30.13
2019-04-14T08:51:36.417Z,29.50
2019-04-14T08:54:09.819Z,29.50
2019-04-14T08:56:50.908Z,28.13
2019-04-14T09:00:11.259Z,30.40
2019-04-14T09:03:03.547Z,26.80
2019-04-14T09:05:43.908Z,27.87
2019-04-14T09:08:23.618Z,27.33
2019-04-14T09:10:56.750Z,31.43
2019-04-14T09:13:26.240Z,27.37
2019-04-14T09:15:56.063Z,25.50
2019-04-14T09:18:25.644Z,25.70
2019-04-14T09:20:55.217Z,23.40
2019-04-14T09:23:25.037Z,24.27
2019-04-14T09:25:54.536Z,24.43
2019-04-14T09:28:24.071Z,27.43
2019-04-14T09:30:53.678Z,27.30
2019-04-14T09:33:23.223Z,24.07
2019-04-14T09:35:52.703Z,22.63
2019-04-14T09:38:22.286Z,27.07
2019-04-14T09:40:51.781Z,24.10
2019-04-14T09:43:21.268Z,26.90
2019-04-14T09:45:50.773Z,24.63
2019-04-14T09:48:20.265Z,25.67
2019-04-14T09:50:49.835Z,27.03
2019-04-14T09:53:19.330Z,24.77
2019-04-14T09:55:48.963Z,25.40
2019-04-14T09:58:18.456Z,28.90
2019-04-14T10:00:49.617Z,30.40
2019-04-14T10:03:19.146Z,27.00
2019-04-14T10:05:48.589Z,28.33
2019-04-14T10:08:18.101Z,23.93
2019-04-14T10:10:47.565Z,34.97
2019-04-14T10:13:17.062Z,25.37
2019-04-14T10:15:46.568Z,26.43
2019-04-14T10:18:16.129Z,30.27
2019-04-14T10:20:45.681Z,29.10
2019-04-14T10:23:15.178Z,25.87
2019-04-14T10:25:44.771Z,24.27
2019-04-14T10:28:14.294Z,25.27
2019-04-14T10:30:43.756Z,27.17
2019-04-14T10:33:13.329Z,26.30
2019-04-14T10:35:42.821Z,27.90
2019-04-14T10:38:12.378Z,30.03
2019-04-14T10:40:41.960Z,31.07
2019-04-14T10:43:11.531Z,26.47
2019-04-14T10:46:15.565Z,26.30
2019-04-14T10:49:14.687Z,22.17
2019-04-14T10:51:45.018Z,24.53
2019-04-14T10:54:14.515Z,24.80
2019-04-14T10:56:44.069Z,26.83
2019-04-14T10:59:13.554Z,22.67
2019-04-14T11:01:43.082Z,25.80
2019-04-14T11:04:12.647Z,26.63
2019-04-14T11:06:57.315Z,25.73
2019-04-14T11:09:26.912Z,23.27
2019-04-14T11:11:56.373Z,18.73
2019-04-14T11:14:25.880Z,20.93
2019-04-14T11:16:55.365Z,21.37
2019-04-14T11:19:24.940Z,19.80
2019-04-14T11:21:54.415Z,20.57
2019-04-14T11:24:24.251Z,20.73
2019-04-14T11:26:53.732Z,21.27
2019-04-14T11:29:23.323Z,23.27
2019-04-14T11:32:12.651Z,21.43
2019-04-14T11:34:52.213Z,22.17
2019-04-14T11:37:46.932Z,21.20
2019-04-14T11:40:19.079Z,22.47
2019-04-14T11:42:52.442Z,19.90
2019-04-14T11:45:20.064Z,19.27
2019-04-14T11:47:49.706Z,18.60
2019-04-14T11:50:19.697Z,19.50
2019-04-14T11:52:49.220Z,21.90
2019-04-14T11:55:18.703Z,20.23
2019-04-14T11:57:48.315Z,20.40
2019-04-14T12:00:36.900Z,21.80
2019-04-14T12:03:19.008Z,19.73
2019-04-14T12:06:16.529Z,21.60
2019-04-14T12:08:50.818Z,18.73
2019-04-14T12:11:20.303Z,17.07
2019-04-14T12:13:49.881Z,17.43
2019-04-14T12:16:19.374Z,21.40
2019-04-14T12:18:48.847Z,19.80
2019-04-14T12:21:18.316Z,17.50
2019-04-14T12:23:47.850Z,19.07
2019-04-14T12:26:17.397Z,16.87
2019-04-14T12:28:47.142Z,17.70
2019-04-14T12:31:17.465Z,19.47
2019-04-14T12:33:46.954Z,18.70
2019-04-14T12:36:16.427Z,18.33
2019-04-14T12:38:45.902Z,19.23
2019-04-14T12:41:20.135Z,21.10
2019-04-14T12:43:59.779Z,23.73
2019-04-14T12:46:46.706Z,19.13
2019-04-14T12:49:35.181Z,22.30
2019-04-14T12:52:21.527Z,18.77
2019-04-14T12:57:33.267Z,19.43
2019-04-14T13:00:02.769Z,19.70
2019-04-14T13:02:37.833Z,19.17
2019-04-14T13:05:07.431Z,19.37
2019-04-14T13:07:37.038Z,18.13
2019-04-14T13:10:07.219Z,24.87
2019-04-14T13:12:36.563Z,21.17
2019-04-14T13:15:06.699Z,19.73
2019-04-14T13:17:36.054Z,17.27
2019-04-14T13:20:05.822Z,18.80
2019-04-14T13:22:35.202Z,22.83
2019-04-14T13:25:04.821Z,19.23
2019-04-14T13:27:34.247Z,18.00
2019-04-14T13:30:03.854Z,18.87
2019-04-14T13:32:36.069Z,20.77
2019-04-14T13:35:04.612Z,18.60
2019-04-14T13:37:33.961Z,21.50
2019-04-14T13:40:03.408Z,18.57
2019-04-14T13:42:32.750Z,19.37
2019-04-14T13:45:02.134Z,20.07
2019-04-14T13:47:31.473Z,19.37
2019-04-14T13:50:00.954Z,18.20
2019-04-14T13:52:31.106Z,21.10
2019-04-14T13:55:00.546Z,18.43
2019-04-14T13:57:29.985Z,19.47
2019-04-14T13:59:59.338Z,18.33
2019-04-14T14:02:28.702Z,18.47
2019-04-14T14:04:58.153Z,17.77
2019-04-14T14:07:27.522Z,17.33
2019-04-14T14:09:57.307Z,18.73
2019-04-14T14:12:40.874Z,19.47
2019-04-14T14:15:41.149Z,17.60
2019-04-14T14:18:29.506Z,17.27
2019-04-14T14:21:23.625Z,16.93
2019-04-14T14:23:59.700Z,18.77
2019-04-14T14:26:29.855Z,20.43
2019-04-14T14:28:59.257Z,15.87
2019-04-14T14:31:28.645Z,20.47
2019-04-14T14:33:58.150Z,24.87
2019-04-14T14:36:27.502Z,17.77
2019-04-14T14:38:56.970Z,19.77
2019-04-14T14:41:26.267Z,18.37
2019-04-14T14:43:55.639Z,19.77
2019-04-14T14:46:49.862Z,19.90
2019-04-14T14:49:33.713Z,17.67
2019-04-14T14:52:06.974Z,16.80
2019-04-14T14:54:36.299Z,19.00
2019-04-14T14:57:05.744Z,16.97
2019-04-14T14:59:35.097Z,17.00
2019-04-14T15:02:04.528Z,19.67
2019-04-14T15:04:33.894Z,20.33
2019-04-14T15:07:03.221Z,19.17
2019-04-14T15:09:32.638Z,20.93
2019-04-14T15:12:02.005Z,25.40
2019-04-14T15:14:31.427Z,18.33
2019-04-14T15:17:00.767Z,17.63
2019-04-14T15:19:30.135Z,18.20
2019-04-14T15:21:59.472Z,18.53
2019-04-14T15:24:28.828Z,18.00
2019-04-14T15:26:58.245Z,19.73
2019-04-14T15:29:27.620Z,21.63
2019-04-14T15:31:56.970Z,20.73
2019-04-14T15:34:26.319Z,18.63
2019-04-14T15:36:55.651Z,18.70
2019-04-14T15:39:24.996Z,17.10
2019-04-14T15:41:54.351Z,17.23
2019-04-14T15:44:23.686Z,19.10
2019-04-14T15:46:53.063Z,18.83
2019-04-14T15:49:22.475Z,15.87
2019-04-14T15:51:52.130Z,18.73
2019-04-14T15:54:21.472Z,18.57
2019-04-14T15:56:57.121Z,16.53
2019-04-14T15:59:51.569Z,17.37
2019-04-14T16:02:31.978Z,17.87
2019-04-14T16:05:05.594Z,16.40
2019-04-14T16:07:44.823Z,19.73
2019-04-14T16:10:39.171Z,18.13
2019-04-14T16:13:29.214Z,19.27
2019-04-14T16:16:08.313Z,19.77
2019-04-14T16:18:45.108Z,17.63
2019-04-14T16:21:14.491Z,18.20
2019-04-14T16:23:50.424Z,18.07
2019-04-14T16:26:28.664Z,18.40
2019-04-14T16:29:19.716Z,19.40
2019-04-14T16:32:19.972Z,19.43
2019-04-14T16:34:52.912Z,18.90
2019-04-14T16:37:22.442Z,18.43
2019-04-14T16:39:51.964Z,18.63
2019-04-14T16:42:21.313Z,21.63
2019-04-14T16:44:50.750Z,16.20
2019-04-14T16:47:20.152Z,18.00
2019-04-14T16:49:49.534Z,22.93
2019-04-14T16:52:46.802Z,18.83
2019-04-14T16:55:29.539Z,16.17
2019-04-14T16:58:08.697Z,19.03
2019-04-14T17:00:41.240Z,17.90
2019-04-14T17:03:10.596Z,19.57
2019-04-14T17:05:39.948Z,17.30
2019-04-14T17:08:09.281Z,17.00
2019-04-14T17:10:38.662Z,16.43
2019-04-14T17:13:07.997Z,18.27
2019-04-14T17:15:56.347Z,18.70
2019-04-14T17:18:47.505Z,17.17
2019-04-14T17:21:36.155Z,18.67
2019-04-14T17:24:24.591Z,17.70
2019-04-14T17:26:58.389Z,18.07
2019-04-14T17:29:55.814Z,16.23
2019-04-14T17:32:50.494Z,16.63
2019-04-14T17:35:29.750Z,16.70
2019-04-14T17:38:03.105Z,17.50
2019-04-14T17:40:44.819Z,16.23
2019-04-14T17:43:23.526Z,15.23
2019-04-14T17:46:10.311Z,16.47
2019-04-14T17:49:01.751Z,16.47
2019-04-14T17:51:56.074Z,18.03
2019-04-14T17:54:43.106Z,16.47
2019-04-14T17:57:30.145Z,17.13
2019-04-14T18:00:22.021Z,17.30
2019-04-14T18:02:59.169Z,16.83
2019-04-14T18:05:32.633Z,15.47
2019-04-14T18:08:25.444Z,18.40
2019-04-14T18:11:16.933Z,16.40
2019-04-14T18:14:08.392Z,15.77
2019-04-14T18:16:49.867Z,15.83
2019-04-14T18:19:35.092Z,14.60
2019-04-14T18:22:04.480Z,13.87
2019-04-14T18:24:42.424Z,15.23
2019-04-14T18:27:04.923Z,14.13
2019-04-14T18:29:45.987Z,16.10
2019-04-14T18:32:20.632Z,14.63
2019-04-14T18:34:56.605Z,14.43
2019-04-14T18:37:36.083Z,13.73
2019-04-14T18:40:21.826Z,14.33
2019-04-14T18:43:19.200Z,13.93
2019-04-14T18:45:55.199Z,13.03
2019-04-14T18:48:29.953Z,13.23
2019-04-14T18:51:12.814Z,12.70
2019-04-14T18:53:47.915Z,14.30
2019-04-14T18:56:25.635Z,13.60
2019-04-14T18:59:16.769Z,13.07
2019-04-14T19:01:46.498Z,12.83
2019-04-14T19:04:15.882Z,13.60
2019-04-14T19:06:45.235Z,13.10
2019-04-14T19:09:14.583Z,13.67
2019-04-14T19:12:02.952Z,15.03
2019-04-14T19:14:34.670Z,14.03
2019-04-14T19:17:19.097Z,14.00
2019-04-14T19:20:01.534Z,14.07
2019-04-14T19:22:22.751Z,13.83
2019-04-14T19:24:52.108Z,14.47
2019-04-14T19:27:21.446Z,15.30
2019-04-14T19:29:50.808Z,13.90
2019-04-14T19:32:20.234Z,13.87
2019-04-14T19:34:49.590Z,13.90
2019-04-14T19:37:18.983Z,13.83
2019-04-14T19:39:48.317Z,13.23
2019-04-14T19:42:17.707Z,15.30
2019-04-14T19:44:47.092Z,14.03
2019-04-14T19:47:16.477Z,14.10
2019-04-14T19:49:45.818Z,14.30
2019-04-14T19:52:15.206Z,13.07
2019-04-14T19:54:44.558Z,14.77
2019-04-14T19:57:13.924Z,14.40
2019-04-14T19:59:43.265Z,14.17
2019-04-14T20:02:12.710Z,13.47
2019-04-14T20:04:42.086Z,15.03
2019-04-14T20:07:11.447Z,13.63
2019-04-14T20:09:40.872Z,13.77
2019-04-14T20:12:10.294Z,13.33
2019-04-14T20:14:39.675Z,14.07
2019-04-14T20:17:31.044Z,13.80
2019-04-14T20:20:19.509Z,13.00
2019-04-14T20:23:07.967Z,13.33
2019-04-14T20:26:05.294Z,13.90
2019-04-14T20:28:40.615Z,14.07
2019-04-14T20:31:35.334Z,13.73
2019-04-14T20:34:04.780Z,15.93
2019-04-14T20:36:34.219Z,14.33
2019-04-14T20:39:05.899Z,14.87
2019-04-14T20:41:35.266Z,15.13
2019-04-14T20:44:04.696Z,15.40
2019-04-14T20:46:34.075Z,14.67
2019-04-14T20:49:03.452Z,15.73
2019-04-14T20:51:32.953Z,13.73
2019-04-14T20:54:02.694Z,15.40
2019-04-14T20:56:32.054Z,15.17
2019-04-14T20:59:01.413Z,16.10
2019-04-14T21:01:32.780Z,15.87
2019-04-14T21:04:23.097Z,15.27
2019-04-14T21:07:15.175Z,15.87
2019-04-14T21:09:53.538Z,15.80
2019-04-14T21:12:38.666Z,16.43
2019-04-14T21:15:34.187Z,15.47
2019-04-14T21:18:16.150Z,17.33
2019-04-14T21:21:16.535Z,15.83
2019-04-14T21:24:03.520Z,16.10
2019-04-14T21:27:07.083Z,15.23
2019-04-14T21:30:07.398Z,17.27
2019-04-14T21:32:48.377Z,16.80
2019-04-14T21:35:42.343Z,17.13
2019-04-14T21:38:45.896Z,18.20
2019-04-14T21:41:21.030Z,19.87
2019-04-14T21:43:50.405Z,19.47
2019-04-14T21:46:19.881Z,17.90
2019-04-14T21:48:49.272Z,19.37
2019-04-14T21:51:18.667Z,18.73
2019-04-14T21:53:48.417Z,19.80
2019-04-14T21:56:17.772Z,20.17
2019-04-14T21:59:07.823Z,24.70
2019-04-14T22:01:54.812Z,24.07
2019-04-14T22:04:42.503Z,24.60
2019-04-14T22:07:26.462Z,22.63
2019-04-14T22:09:59.571Z,23.93
2019-04-14T22:12:30.302Z,21.83
2019-04-14T22:14:59.713Z,22.30
2019-04-14T22:17:29.118Z,23.57
2019-04-14T22:19:58.508Z,23.10
2019-04-14T22:22:27.938Z,25.20
2019-04-14T22:24:57.289Z,23.43
2019-04-14T22:27:26.639Z,26.17
2019-04-14T22:29:56.012Z,22.20
2019-04-14T22:32:25.365Z,24.83
2019-04-14T22:34:54.869Z,25.03
2019-04-14T22:37:24.201Z,26.37
2019-04-14T22:39:53.554Z,25.83
2019-04-14T22:42:22.976Z,27.60
2019-04-14T22:44:52.345Z,25.07
2019-04-14T22:47:21.741Z,24.60
2019-04-14T22:49:51.100Z,26.43
2019-04-14T22:52:20.633Z,23.70
2019-04-14T22:54:50.078Z,26.30
2019-04-14T22:57:19.682Z,23.00
2019-04-14T22:59:49.059Z,24.07
2019-04-14T23:02:37.429Z,25.23
2019-04-14T23:05:26.010Z,24.73
2019-04-14T23:08:13.866Z,25.97
2019-04-14T23:11:17.286Z,27.17
2019-04-14T23:13:59.798Z,26.37
2019-04-14T23:16:37.039Z,27.13
2019-04-14T23:19:10.938Z,29.10
2019-04-14T23:21:48.449Z,27.53
2019-04-14T23:24:30.506Z,28.33
2019-04-14T23:26:59.984Z,25.57
2019-04-14T23:29:29.400Z,27.60
2019-04-14T23:31:58.750Z,26.03
2019-04-14T23:34:28.109Z,26.40
2019-04-14T23:36:57.456Z,27.17
2019-04-14T23:39:26.818Z,27.27
2019-04-14T23:41:56.201Z,26.53
2019-04-14T23:44:25.561Z,26.77
2019-04-14T23:46:54.902Z,29.70
2019-04-14T23:49:24.360Z,30.67
2019-04-14T23:51:53.975Z,31.07
2019-04-14T23:54:23.325Z,27.57
2019-04-14T23:57:04.927Z,31.07
2019-04-14T23:59:23.912Z,30.13
